Budapest, Hungary

3:53 AM CEST on August 04, 2015 (GMT +0200)
IBUDAPES25 | | Change Station
CLOSE
Current Station
Personal Weather Station
Location: Budapest, VIII. Jozsefvaros, Budapest
Elevation: 374 ft
Nearby Weather Stations

Elev 374 ft 47.49 °N, 19.07 °E | Updated 8 seconds ago

Clear
Clear
71.1 °F
Feels Like 72 °F
N
0.0
Wind Variable Wind from NE
Gusts 0.0 mph

5:24 AM 8:14 PM
Waning Gibbous, 82% visible
Pressure 30.04 in
Visibility -9999.0 miles
Clouds
Heat Index 72 °F
Dew Point 64 °F
Humidity 79%
Rainfall 0.00 in
Snow Depth Not available.
UV 0.0 out of 12
Pollen Not available.
Air Quality Not available.
Flu Activity Not available.
METAR LHBP 040130Z VRB03KT CAVOK 20/18 Q1017 NOSIG

More Conditions Fewer Conditions

Pressure 30.04 in
Visibility -9999.0 miles
Clouds
Heat Index 72 °F
Dew Point 64 °F
Humidity 79%
Rainfall 0.00 in
Snow Depth Not available.
UV 0.0 out of 12
Pollen Not available.
Air Quality Not available.
Flu Activity Not available.
METAR LHBP 040130Z VRB03KT CAVOK 20/18 Q1017 NOSIG

More Conditions Fewer Conditions

10-Day Weather Forecast

×

Almanac

Astronomy

Aug. 04, 2015 Rise Set
Actual Time
Civil Twilight
Nautical Twilight
Astronomical Twilight
Moon
Length of Visible Light
Length of Day
Tomorrow will be .
, % of the Moon is Illuminated

Today's Extremes

Country Highs Country Lows

Community

WunderPhotos

Upload Photos

1,843,820 photos uploaded!

WunderBlogs® & News

Nearby

Air Quality

  Air Quality AQ Index Pollutant
Not available.

Snow Depth

Station Depth Elevation

Earthquake Activity

City Distance Mag. Time & Date
Minimum magnitude displayed is 2.5.

Coastal Water Temperatures

Place Temperature

Stations

Nearby Weather Stations

Station Location Temp. Windchill Dew Point Humidity Wind Precip. Elev Updated Type